createdAt,value
2023-05-17T00:00:51.705Z,99.95
2023-05-17T00:01:51.698Z,99.95
2023-05-17T00:02:51.743Z,99.99
2023-05-17T00:03:51.704Z,99.99
2023-05-17T00:04:51.821Z,99.99
2023-05-17T00:05:51.689Z,99.99
2023-05-17T00:06:51.634Z,99.99
2023-05-17T00:07:51.644Z,99.99
2023-05-17T00:08:51.617Z,99.99
2023-05-17T00:09:51.615Z,99.99
2023-05-17T00:10:51.712Z,99.99
2023-05-17T00:11:51.642Z,99.99
2023-05-17T00:12:51.570Z,99.99
2023-05-17T00:13:51.532Z,99.99
2023-05-17T00:14:52.470Z,99.99
2023-05-17T00:15:51.513Z,99.99
2023-05-17T00:16:51.544Z,99.99
2023-05-17T00:17:51.603Z,99.99
2023-05-17T00:18:51.608Z,99.99
2023-05-17T00:19:51.570Z,99.99
2023-05-17T00:20:51.496Z,99.99
2023-05-17T00:21:51.475Z,99.99
2023-05-17T00:22:51.432Z,99.99
2023-05-17T00:23:51.502Z,99.99
2023-05-17T00:24:51.401Z,99.99
2023-05-17T00:25:51.456Z,99.99
2023-05-17T00:26:51.425Z,99.99
2023-05-17T00:27:51.427Z,99.99
2023-05-17T00:28:51.368Z,99.99
2023-05-17T00:29:51.438Z,99.92
2023-05-17T00:30:51.345Z,99.82
2023-05-17T00:31:51.327Z,99.82
2023-05-17T00:32:51.363Z,99.92
2023-05-17T00:33:51.285Z,99.82
2023-05-17T00:34:51.340Z,99.76
2023-05-17T00:35:51.417Z,99.82
2023-05-17T00:36:51.357Z,99.99
2023-05-17T00:37:51.227Z,99.99
2023-05-17T00:38:51.213Z,99.99
2023-05-17T00:39:51.280Z,99.99
2023-05-17T00:40:51.283Z,99.99
2023-05-17T00:41:51.257Z,99.99
2023-05-17T00:42:51.275Z,99.99
2023-05-17T00:43:51.240Z,99.99
2023-05-17T00:44:51.211Z,99.99
2023-05-17T00:45:51.197Z,99.99
2023-05-17T00:46:51.099Z,99.99
2023-05-17T00:47:51.140Z,99.99
2023-05-17T00:48:51.130Z,99.99
2023-05-17T00:49:51.108Z,99.99
2023-05-17T00:50:51.061Z,99.99
2023-05-17T00:51:51.045Z,99.99
2023-05-17T00:52:51.100Z,99.99
2023-05-17T00:53:51.021Z,99.99
2023-05-17T00:54:51.074Z,99.99
2023-05-17T00:55:51.028Z,99.99
2023-05-17T00:56:50.995Z,99.99
2023-05-17T00:57:50.960Z,99.99
2023-05-17T00:58:50.990Z,99.99
2023-05-17T00:59:50.965Z,99.99
2023-05-17T01:00:50.942Z,99.99
2023-05-17T01:01:50.904Z,99.99
2023-05-17T01:02:50.950Z,99.99
2023-05-17T01:03:50.992Z,99.99
2023-05-17T01:04:50.916Z,99.99
2023-05-17T01:05:50.854Z,99.99
2023-05-17T01:06:50.839Z,99.99
2023-05-17T01:07:50.817Z,99.99
2023-05-17T01:08:50.849Z,99.99
2023-05-17T01:09:50.834Z,99.99
2023-05-17T01:10:50.810Z,99.99
2023-05-17T01:11:50.780Z,99.99
2023-05-17T01:12:50.798Z,99.99
2023-05-17T01:13:50.801Z,99.99
2023-05-17T01:14:50.734Z,99.99
2023-05-17T01:15:50.738Z,99.99
2023-05-17T01:16:50.739Z,99.99
2023-05-17T01:17:50.869Z,99.99
2023-05-17T01:18:50.827Z,99.99
2023-05-17T01:19:50.811Z,99.99
2023-05-17T01:20:50.651Z,99.99
2023-05-17T01:21:50.672Z,99.99
2023-05-17T01:22:50.670Z,99.99
2023-05-17T01:23:50.631Z,99.99
2023-05-17T01:24:50.633Z,99.99
2023-05-17T01:25:50.601Z,99.99
2023-05-17T01:26:50.611Z,99.99
2023-05-17T01:27:50.596Z,99.99
2023-05-17T01:28:50.547Z,99.99
2023-05-17T01:29:50.541Z,99.99
2023-05-17T01:30:50.541Z,99.99
2023-05-17T01:31:50.579Z,99.99
2023-05-17T01:32:50.535Z,99.99
2023-05-17T01:33:50.625Z,99.99
2023-05-17T01:34:50.475Z,99.99
2023-05-17T01:35:50.481Z,99.99
2023-05-17T01:36:50.486Z,99.99
2023-05-17T01:37:50.427Z,99.99
2023-05-17T01:38:50.419Z,99.99
2023-05-17T01:39:50.440Z,99.99
2023-05-17T01:40:50.445Z,99.99
2023-05-17T01:41:50.410Z,99.99
2023-05-17T01:42:50.369Z,99.99
2023-05-17T01:43:50.372Z,99.99
2023-05-17T01:44:50.344Z,99.99
2023-05-17T01:45:50.382Z,99.99
2023-05-17T01:46:50.328Z,99.99
2023-05-17T01:47:50.451Z,99.99
2023-05-17T01:48:50.423Z,99.99
2023-05-17T01:49:50.309Z,99.99
2023-05-17T01:50:50.291Z,99.99
2023-05-17T01:51:50.280Z,99.99
2023-05-17T01:52:50.236Z,99.99
2023-05-17T01:53:50.245Z,99.99
2023-05-17T01:54:50.236Z,99.99
2023-05-17T01:55:50.202Z,99.99
2023-05-17T01:56:50.221Z,99.99
2023-05-17T01:57:50.198Z,99.99
2023-05-17T01:58:50.163Z,99.99
2023-05-17T01:59:50.488Z,99.99
2023-05-17T02:00:50.198Z,99.99
2023-05-17T02:01:50.123Z,99.99
2023-05-17T02:02:50.166Z,99.99
2023-05-17T02:03:50.160Z,99.99
2023-05-17T02:04:50.124Z,99.99
2023-05-17T02:05:50.081Z,99.95
2023-05-17T02:06:50.054Z,99.99
2023-05-17T02:07:50.092Z,99.95
2023-05-17T02:08:50.051Z,99.95
2023-05-17T02:09:50.182Z,99.95
2023-05-17T02:10:50.004Z,99.74
2023-05-17T02:11:50.044Z,99.54
2023-05-17T02:12:50.004Z,99.48
2023-05-17T02:13:50.002Z,99.58
2023-05-17T02:14:49.963Z,99.54
2023-05-17T02:15:49.944Z,99.69
2023-05-17T02:16:49.961Z,99.64
2023-05-17T02:17:49.986Z,99.79
2023-05-17T02:18:50.026Z,99.79
2023-05-17T02:19:49.875Z,99.90
2023-05-17T02:20:49.889Z,99.90
2023-05-17T02:21:49.863Z,99.90
2023-05-17T02:22:49.887Z,99.99
2023-05-17T02:23:49.865Z,99.99
2023-05-17T02:24:49.840Z,99.99
2023-05-17T02:25:49.883Z,99.99
2023-05-17T02:26:49.792Z,99.99
2023-05-17T02:27:49.827Z,99.99
2023-05-17T02:28:49.763Z,99.99
2023-05-17T02:29:49.756Z,99.99
2023-05-17T02:30:49.739Z,99.99
2023-05-17T02:31:49.809Z,99.99
2023-05-17T02:32:49.842Z,99.99
2023-05-17T02:33:49.756Z,99.99
2023-05-17T02:34:49.697Z,99.99
2023-05-17T02:35:49.677Z,99.99
2023-05-17T02:36:49.672Z,99.99
2023-05-17T02:37:49.712Z,99.99
2023-05-17T02:38:49.636Z,99.99
2023-05-17T02:39:49.644Z,99.99
2023-05-17T02:40:49.612Z,99.99
2023-05-17T02:41:49.651Z,99.99
2023-05-17T02:42:49.615Z,99.99
2023-05-17T02:43:49.574Z,99.99
2023-05-17T02:44:49.564Z,99.99
2023-05-17T02:45:49.551Z,99.99
2023-05-17T02:46:49.603Z,99.99
2023-05-17T02:47:49.615Z,99.99
2023-05-17T02:48:49.491Z,99.99
2023-05-17T02:49:49.440Z,99.99
2023-05-17T02:50:49.552Z,99.99
2023-05-17T02:51:49.622Z,99.99
2023-05-17T02:52:49.467Z,99.99
2023-05-17T02:53:49.436Z,99.99
2023-05-17T02:54:49.380Z,99.99
2023-05-17T02:55:49.393Z,99.99
2023-05-17T02:56:49.462Z,99.99
2023-05-17T02:57:49.396Z,99.99
2023-05-17T02:58:49.373Z,99.99
2023-05-17T02:59:49.360Z,99.99
2023-05-17T03:00:49.324Z,99.99
2023-05-17T03:01:49.292Z,99.99
2023-05-17T03:02:49.438Z,99.99
2023-05-17T03:03:49.452Z,99.99
2023-05-17T03:04:49.365Z,99.99
2023-05-17T03:05:49.310Z,99.99
2023-05-17T03:06:49.196Z,99.99
2023-05-17T03:07:49.194Z,99.99
2023-05-17T03:08:49.183Z,99.99
2023-05-17T03:09:49.215Z,99.99
2023-05-17T03:10:49.184Z,99.99
2023-05-17T03:11:49.190Z,99.99
2023-05-17T03:12:49.139Z,99.99
2023-05-17T03:13:49.121Z,99.99
2023-05-17T03:14:49.160Z,99.99
2023-05-17T03:15:49.095Z,99.99
2023-05-17T03:16:49.073Z,99.99
2023-05-17T03:17:49.155Z,99.99
2023-05-17T03:18:50.126Z,99.99
2023-05-17T03:19:49.141Z,99.99
2023-05-17T03:20:49.020Z,99.99
2023-05-17T03:21:49.039Z,99.99
2023-05-17T03:22:48.996Z,99.99
2023-05-17T03:23:49.082Z,99.99
2023-05-17T03:24:49.009Z,99.99
2023-05-17T03:25:48.989Z,99.99
2023-05-17T03:26:48.965Z,99.99
2023-05-17T03:27:49.028Z,99.99
2023-05-17T03:28:48.969Z,99.99
2023-05-17T03:29:48.928Z,99.99
2023-05-17T03:30:48.950Z,99.99
2023-05-17T03:31:48.909Z,99.99
2023-05-17T03:32:48.944Z,99.99
2023-05-17T03:33:49.025Z,99.99
2023-05-17T03:34:48.855Z,99.99
2023-05-17T03:35:48.857Z,99.99
2023-05-17T03:36:48.951Z,99.99
2023-05-17T03:37:48.832Z,99.99
2023-05-17T03:38:48.818Z,99.99
2023-05-17T03:39:48.821Z,99.99
2023-05-17T03:40:48.776Z,99.99
2023-05-17T03:41:48.765Z,99.99
2023-05-17T03:42:48.760Z,99.99
2023-05-17T03:43:48.731Z,99.99
2023-05-17T03:44:48.732Z,99.99
2023-05-17T03:45:48.742Z,99.99
2023-05-17T03:46:48.679Z,99.99
2023-05-17T03:47:48.797Z,99.99
2023-05-17T03:48:48.719Z,99.85
2023-05-17T03:49:48.671Z,99.54
2023-05-17T03:50:48.648Z,99.43
2023-05-17T03:51:48.625Z,99.43
2023-05-17T03:52:48.661Z,99.29
2023-05-17T03:53:48.613Z,99.08
2023-05-17T03:54:48.584Z,98.77
2023-05-17T03:55:48.611Z,98.92
2023-05-17T03:56:48.644Z,98.82
2023-05-17T03:57:48.578Z,98.82
2023-05-17T03:58:48.533Z,98.71
2023-05-17T03:59:48.518Z,98.20
2023-05-17T04:00:48.503Z,98.30
2023-05-17T04:01:48.519Z,98.20
2023-05-17T04:02:48.540Z,98.20
2023-05-17T04:03:48.492Z,98.24
2023-05-17T04:04:48.488Z,98.14
2023-05-17T04:05:48.460Z,98.14
2023-05-17T04:06:48.467Z,98.14
2023-05-17T04:07:48.424Z,98.14
2023-05-17T04:08:48.404Z,98.24
2023-05-17T04:09:48.394Z,98.24
2023-05-17T04:10:48.417Z,98.35
2023-05-17T04:11:48.441Z,98.50
2023-05-17T04:12:48.342Z,98.55
2023-05-17T04:13:48.424Z,98.70
2023-05-17T04:14:48.335Z,98.91
2023-05-17T04:15:48.362Z,99.01
2023-05-17T04:16:48.336Z,99.11
2023-05-17T04:17:48.343Z,99.01
2023-05-17T04:18:48.334Z,99.01
2023-05-17T04:19:48.292Z,99.01
2023-05-17T04:20:48.265Z,98.91
2023-05-17T04:21:48.229Z,99.01
2023-05-17T04:22:48.241Z,99.01
2023-05-17T04:23:48.221Z,99.01
2023-05-17T04:24:48.198Z,99.11
2023-05-17T04:25:48.458Z,99.11
2023-05-17T04:26:48.164Z,99.01
2023-05-17T04:27:48.180Z,98.91
2023-05-17T04:28:48.139Z,99.01
2023-05-17T04:29:48.170Z,99.01
2023-05-17T04:30:48.134Z,99.11
2023-05-17T04:31:48.118Z,99.11
2023-05-17T04:32:48.112Z,99.11
2023-05-17T04:33:48.148Z,99.11
2023-05-17T04:34:48.124Z,99.01
2023-05-17T04:35:48.052Z,99.01
2023-05-17T04:36:48.035Z,98.91
2023-05-17T04:37:48.030Z,98.70
2023-05-17T04:38:48.018Z,98.60
2023-05-17T04:39:48.027Z,98.39
2023-05-17T04:40:48.011Z,98.39
2023-05-17T04:41:47.975Z,98.50
2023-05-17T04:42:47.968Z,98.35
2023-05-17T04:43:47.980Z,98.03
2023-05-17T04:44:47.963Z,97.63
2023-05-17T04:45:47.915Z,97.63
2023-05-17T04:46:47.950Z,97.73
2023-05-17T04:47:48.061Z,97.52
2023-05-17T04:48:48.030Z,97.63
2023-05-17T04:49:47.862Z,97.42
2023-05-17T04:50:47.881Z,97.38
2023-05-17T04:51:47.842Z,97.38
2023-05-17T04:52:47.907Z,97.27
2023-05-17T04:53:47.881Z,97.17
2023-05-17T04:54:47.823Z,97.17
2023-05-17T04:55:47.844Z,97.17
2023-05-17T04:56:47.784Z,97.06
2023-05-17T04:57:47.819Z,97.27
2023-05-17T04:58:47.798Z,97.38
2023-05-17T04:59:47.788Z,97.17
2023-05-17T05:00:47.745Z,97.06
2023-05-17T05:01:47.707Z,96.96
2023-05-17T05:02:47.799Z,96.75
2023-05-17T05:03:47.795Z,96.50
2023-05-17T05:04:47.803Z,96.20
2023-05-17T05:05:47.750Z,96.20
2023-05-17T05:06:47.641Z,96.09
2023-05-17T05:07:47.692Z,95.95
2023-05-17T05:08:47.621Z,95.74
2023-05-17T05:09:47.613Z,95.84
2023-05-17T05:10:47.603Z,95.23
2023-05-17T05:11:47.620Z,95.33
2023-05-17T05:12:47.638Z,95.23
2023-05-17T05:13:47.573Z,94.87
2023-05-17T05:14:47.545Z,94.77
2023-05-17T05:15:47.533Z,94.26
2023-05-17T05:16:47.544Z,94.15
2023-05-17T05:17:47.608Z,94.42
2023-05-17T05:18:47.674Z,94.62
2023-05-17T05:19:47.541Z,94.11
2023-05-17T05:20:47.455Z,93.96
2023-05-17T05:21:47.468Z,93.24
2023-05-17T05:22:47.461Z,93.24
2023-05-17T05:23:47.411Z,93.51
2023-05-17T05:24:47.470Z,93.20
2023-05-17T05:25:47.403Z,92.89
2023-05-17T05:26:47.395Z,92.95
2023-05-17T05:27:47.364Z,92.03
2023-05-17T05:28:47.420Z,91.72
2023-05-17T05:29:47.341Z,91.67
2023-05-17T05:30:47.461Z,91.57
2023-05-17T05:31:47.321Z,90.95
2023-05-17T05:32:47.334Z,90.95
2023-05-17T05:33:47.407Z,90.91
2023-05-17T05:34:47.293Z,90.40
2023-05-17T05:35:47.294Z,89.99
2023-05-17T05:36:47.253Z,90.05
2023-05-17T05:37:47.229Z,88.72
2023-05-17T05:38:47.220Z,88.62
2023-05-17T05:39:47.246Z,88.41
2023-05-17T05:40:47.229Z,88.72
2023-05-17T05:41:47.184Z,88.21
2023-05-17T05:42:47.178Z,87.38
2023-05-17T05:43:47.153Z,87.79
2023-05-17T05:44:47.237Z,87.65
2023-05-17T05:45:47.129Z,87.34
2023-05-17T05:46:47.128Z,87.14
2023-05-17T05:47:47.154Z,86.69
2023-05-17T05:48:47.197Z,85.77
2023-05-17T05:49:47.124Z,86.22
2023-05-17T05:50:47.119Z,85.66
2023-05-17T05:51:47.108Z,86.07
2023-05-17T05:52:47.057Z,84.64
2023-05-17T05:53:47.082Z,85.22
2023-05-17T05:54:47.057Z,85.22
2023-05-17T05:55:47.001Z,85.79
2023-05-17T05:56:47.033Z,85.07
2023-05-17T05:57:46.968Z,82.27
2023-05-17T05:58:47.033Z,84.01
2023-05-17T05:59:46.979Z,82.07
2023-05-17T06:00:46.975Z,83.09
2023-05-17T06:01:46.930Z,82.37
2023-05-17T06:02:46.934Z,82.37
2023-05-17T06:03:46.954Z,83.33
2023-05-17T06:04:46.889Z,82.82
2023-05-17T06:05:47.016Z,83.81
2023-05-17T06:06:46.921Z,83.60
2023-05-17T06:07:46.847Z,81.45
2023-05-17T06:08:46.885Z,82.27
2023-05-17T06:09:46.820Z,82.78
2023-05-17T06:10:46.842Z,83.03
2023-05-17T06:11:46.854Z,82.21
2023-05-17T06:12:46.824Z,83.17
2023-05-17T06:13:46.906Z,82.69
2023-05-17T06:14:46.766Z,83.00
2023-05-17T06:15:46.730Z,83.92
2023-05-17T06:16:46.734Z,84.37
2023-05-17T06:17:46.819Z,84.88
2023-05-17T06:18:48.750Z,86.22
2023-05-17T06:19:46.810Z,87.04
2023-05-17T06:20:46.671Z,86.11
2023-05-17T06:21:46.673Z,86.42
2023-05-17T06:22:46.725Z,85.50
2023-05-17T06:23:46.639Z,85.50
2023-05-17T06:24:46.624Z,86.11
2023-05-17T06:25:46.611Z,86.79
2023-05-17T06:26:46.620Z,87.30
2023-05-17T06:27:47.406Z,86.04
2023-05-17T06:28:46.569Z,85.63
2023-05-17T06:29:46.790Z,84.70
2023-05-17T06:30:46.536Z,83.64
2023-05-17T06:31:46.586Z,84.25
2023-05-17T06:32:46.599Z,83.54
2023-05-17T06:33:46.529Z,81.70
2023-05-17T06:34:46.606Z,80.88
2023-05-17T06:35:56.203Z,79.44
2023-05-17T06:36:47.491Z,80.33
2023-05-17T06:37:46.453Z,80.74
2023-05-17T06:38:46.426Z,74.69
2023-05-17T06:39:55.401Z,76.17
2023-05-17T06:40:47.439Z,76.47
2023-05-17T06:41:46.416Z,76.68
2023-05-17T06:42:46.423Z,78.31
2023-05-17T06:43:46.365Z,78.76
2023-05-17T06:44:46.349Z,76.92
2023-05-17T06:45:46.416Z,77.77
2023-05-17T06:46:46.357Z,78.49
2023-05-17T06:47:46.413Z,79.75
2023-05-17T06:48:49.502Z,80.58
2023-05-17T06:49:46.276Z,81.09
2023-05-17T06:50:46.342Z,82.01
2023-05-17T06:51:46.250Z,81.40
2023-05-17T06:52:46.268Z,82.39
2023-05-17T06:53:46.250Z,82.39
2023-05-17T06:54:46.276Z,82.18
2023-05-17T06:55:46.236Z,82.69
2023-05-17T06:56:46.214Z,81.94
2023-05-17T06:57:46.166Z,81.63
2023-05-17T06:58:46.444Z,82.35
2023-05-17T06:59:46.186Z,80.40
2023-05-17T07:00:46.165Z,79.17
2023-05-17T07:01:46.156Z,79.03
2023-05-17T07:02:46.224Z,77.91
2023-05-17T07:03:46.133Z,77.56
2023-05-17T07:04:46.200Z,75.82
2023-05-17T07:05:46.233Z,76.75
2023-05-17T07:06:46.068Z,77.26
2023-05-17T07:07:46.047Z,77.29
2023-05-17T07:08:46.026Z,76.17
2023-05-17T07:09:46.043Z,76.81
2023-05-17T07:10:46.001Z,77.02
2023-05-17T07:11:45.982Z,77.47
2023-05-17T07:12:46.761Z,78.28
2023-05-17T07:13:46.868Z,79.11
2023-05-17T07:14:45.986Z,79.96
2023-05-17T07:15:45.951Z,80.47
2023-05-17T07:16:45.926Z,80.27
2023-05-17T07:17:45.998Z,80.68
2023-05-17T07:18:45.967Z,80.82
2023-05-17T07:19:46.053Z,80.10
2023-05-17T07:20:45.900Z,80.41
2023-05-17T07:21:45.850Z,80.51
2023-05-17T07:22:45.862Z,81.43
2023-05-17T07:23:45.881Z,80.99
2023-05-17T07:24:45.828Z,80.47
2023-05-17T07:25:45.983Z,79.52
2023-05-17T07:26:45.790Z,79.41
2023-05-17T07:27:45.775Z,79.11
2023-05-17T07:28:45.835Z,81.36
2023-05-17T07:29:45.769Z,79.99
2023-05-17T07:30:45.749Z,79.79
2023-05-17T07:31:45.729Z,79.64
2023-05-17T07:32:46.055Z,79.30
2023-05-17T07:33:45.748Z,78.38
2023-05-17T07:34:45.778Z,78.79
2023-05-17T07:35:45.665Z,78.17
2023-05-17T07:36:45.668Z,77.97
2023-05-17T07:37:45.690Z,79.30
2023-05-17T07:38:45.675Z,76.20
2023-05-17T07:39:45.615Z,75.59
2023-05-17T07:40:45.618Z,75.04
2023-05-17T07:41:45.731Z,75.82
2023-05-17T07:42:45.651Z,74.90
2023-05-17T07:43:45.567Z,74.49
2023-05-17T07:44:45.559Z,74.73
2023-05-17T07:45:45.551Z,73.23
2023-05-17T07:46:45.553Z,73.64
2023-05-17T07:47:45.648Z,73.16
2023-05-17T07:48:45.613Z,74.49
2023-05-17T07:49:49.593Z,74.11
2023-05-17T07:50:45.477Z,70.94
2023-05-17T07:51:45.557Z,71.86
2023-05-17T07:52:45.462Z,71.45
2023-05-17T07:53:45.442Z,71.56
2023-05-17T07:54:46.466Z,71.94
2023-05-17T07:55:46.736Z,69.89
2023-05-17T07:56:45.441Z,69.07
2023-05-17T07:57:45.373Z,70.37
2023-05-17T07:58:45.415Z,68.77
2023-05-17T07:59:46.186Z,66.09
2023-05-17T08:00:45.377Z,65.55
2023-05-17T08:01:45.365Z,63.22
2023-05-17T08:02:45.349Z,60.37
2023-05-17T08:03:45.293Z,62.27
2023-05-17T08:04:45.337Z,63.90
2023-05-17T08:05:45.357Z,63.59
2023-05-17T08:06:45.275Z,63.76
2023-05-17T08:07:45.297Z,62.87
2023-05-17T08:08:45.257Z,64.02
2023-05-17T08:09:45.248Z,66.39
2023-05-17T08:10:45.250Z,65.68
2023-05-17T08:11:45.221Z,66.02
2023-05-17T08:12:45.205Z,67.27
2023-05-17T08:13:45.182Z,66.46
2023-05-17T08:14:45.157Z,65.67
2023-05-17T08:15:45.180Z,68.02
2023-05-17T08:16:45.145Z,65.47
2023-05-17T08:17:45.229Z,66.97
2023-05-17T08:18:45.244Z,67.55
2023-05-17T08:19:45.246Z,65.20
2023-05-17T08:20:45.129Z,65.31
2023-05-17T08:21:45.110Z,66.50
2023-05-17T08:22:45.083Z,68.51
2023-05-17T08:23:45.038Z,62.75
2023-05-17T08:24:45.072Z,60.43
2023-05-17T08:25:45.041Z,58.04
2023-05-17T08:26:45.024Z,59.27
2023-05-17T08:27:44.991Z,56.23
2023-05-17T08:28:45.038Z,57.88
2023-05-17T08:29:44.997Z,56.90
2023-05-17T08:30:44.981Z,57.66
2023-05-17T08:31:44.939Z,60.94
2023-05-17T08:32:45.049Z,60.08
2023-05-17T08:33:44.963Z,61.63
2023-05-17T08:34:44.953Z,62.37
2023-05-17T08:35:44.929Z,63.96
2023-05-17T08:36:44.951Z,63.89
2023-05-17T08:37:44.907Z,65.01
2023-05-17T08:38:44.905Z,63.92
2023-05-17T08:39:44.897Z,65.89
2023-05-17T08:40:44.840Z,65.99
2023-05-17T08:41:44.856Z,66.91
2023-05-17T08:42:44.784Z,65.46
2023-05-17T08:43:44.805Z,62.16
2023-05-17T08:44:44.754Z,62.14
2023-05-17T08:45:44.793Z,59.42
2023-05-17T08:46:44.740Z,57.12
2023-05-17T08:47:44.767Z,57.17
2023-05-17T08:48:44.760Z,59.51
2023-05-17T08:49:46.383Z,55.62
2023-05-17T08:50:44.674Z,53.55
2023-05-17T08:51:44.699Z,53.90
2023-05-17T08:52:44.755Z,54.79
2023-05-17T08:53:44.671Z,55.25
2023-05-17T08:54:44.653Z,59.63
2023-05-17T08:55:44.604Z,56.72
2023-05-17T08:56:44.627Z,56.03
2023-05-17T08:57:44.638Z,51.90
2023-05-17T08:58:56.487Z,52.28
2023-05-17T08:59:45.549Z,52.03
2023-05-17T09:00:44.564Z,50.52
2023-05-17T09:01:44.558Z,49.48
2023-05-17T09:02:44.640Z,50.55
2023-05-17T09:03:44.657Z,49.62
2023-05-17T09:04:44.584Z,48.79
2023-05-17T09:05:44.540Z,47.47
2023-05-17T09:06:44.518Z,45.76
2023-05-17T09:07:44.484Z,48.99
2023-05-17T09:08:44.434Z,47.86
2023-05-17T09:09:44.454Z,49.82
2023-05-17T09:10:44.441Z,44.19
2023-05-17T09:11:44.454Z,49.55
2023-05-17T09:12:44.402Z,48.30
2023-05-17T09:13:44.395Z,48.47
2023-05-17T09:14:44.369Z,50.59
2023-05-17T09:15:44.365Z,50.54
2023-05-17T09:16:44.375Z,51.20
2023-05-17T09:17:44.435Z,51.78
2023-05-17T09:18:44.444Z,55.65
2023-05-17T09:19:44.520Z,53.98
2023-05-17T09:20:44.305Z,54.94
2023-05-17T09:21:44.353Z,56.37
2023-05-17T09:22:44.272Z,58.02
2023-05-17T09:23:51.475Z,57.41
2023-05-17T09:24:45.252Z,55.78
2023-05-17T09:25:44.350Z,54.92
2023-05-17T09:26:44.231Z,57.84
2023-05-17T09:27:44.229Z,55.30
2023-05-17T09:28:44.164Z,59.27
2023-05-17T09:29:44.233Z,56.42
2023-05-17T09:30:44.182Z,57.41
2023-05-17T09:31:44.167Z,56.47
2023-05-17T09:32:44.148Z,56.87
2023-05-17T09:33:44.153Z,57.10
2023-05-17T09:34:44.137Z,55.20
2023-05-17T09:35:44.142Z,55.63
2023-05-17T09:36:44.265Z,55.40
2023-05-17T09:37:44.062Z,51.98
2023-05-17T09:38:44.044Z,53.17
2023-05-17T09:39:44.095Z,54.11
2023-05-17T09:40:44.031Z,52.20
2023-05-17T09:41:44.011Z,53.22
2023-05-17T09:42:44.046Z,52.03
2023-05-17T09:43:44.021Z,52.56
2023-05-17T09:44:43.976Z,47.58
2023-05-17T09:45:43.961Z,45.42
2023-05-17T09:46:43.970Z,45.59
2023-05-17T09:47:43.973Z,46.80
2023-05-17T09:48:44.208Z,51.41
2023-05-17T09:49:43.949Z,45.79
2023-05-17T09:50:43.893Z,43.68
2023-05-17T09:51:43.894Z,47.66
2023-05-17T09:52:43.877Z,45.50
2023-05-17T09:53:43.890Z,48.17
2023-05-17T09:54:43.825Z,47.33
2023-05-17T09:55:43.826Z,49.32
2023-05-17T09:56:43.819Z,49.80
2023-05-17T09:57:43.819Z,54.18
2023-05-17T09:58:43.806Z,51.18
2023-05-17T09:59:43.780Z,50.76
2023-05-17T10:00:43.753Z,52.18
2023-05-17T10:01:43.762Z,53.88
2023-05-17T10:02:43.889Z,52.76
2023-05-17T10:03:43.771Z,55.96
2023-05-17T10:04:43.706Z,50.71
2023-05-17T10:05:43.705Z,49.33
2023-05-17T10:06:48.531Z,53.27
2023-05-17T10:07:44.712Z,53.00
2023-05-17T10:08:43.655Z,45.34
2023-05-17T10:09:43.645Z,46.87
2023-05-17T10:10:43.625Z,48.10
2023-05-17T10:11:43.643Z,47.72
2023-05-17T10:12:43.671Z,48.27
2023-05-17T10:13:43.667Z,47.81
2023-05-17T10:14:43.602Z,52.67
2023-05-17T10:15:43.593Z,50.87
2023-05-17T10:16:43.594Z,49.05
2023-05-17T10:17:45.400Z,51.20
2023-05-17T10:18:43.647Z,53.45
2023-05-17T10:19:43.778Z,51.93
2023-05-17T10:20:43.497Z,54.44
2023-05-17T10:21:43.549Z,50.62
2023-05-17T10:22:43.509Z,50.16
2023-05-17T10:23:43.559Z,50.59
2023-05-17T10:24:43.434Z,49.21
2023-05-17T10:25:43.467Z,51.86
2023-05-17T10:26:43.460Z,51.28
2023-05-17T10:27:43.397Z,52.84
2023-05-17T10:28:43.373Z,53.52
2023-05-17T10:29:43.374Z,50.87
2023-05-17T10:30:43.398Z,52.79
2023-05-17T10:31:43.410Z,50.52
2023-05-17T10:32:43.372Z,48.93
2023-05-17T10:33:43.420Z,49.04
2023-05-17T10:34:43.572Z,51.93
2023-05-17T10:35:43.341Z,52.36
2023-05-17T10:36:43.347Z,47.77
2023-05-17T10:37:43.301Z,51.65
2023-05-17T10:38:43.353Z,49.68
2023-05-17T10:39:43.293Z,52.26
2023-05-17T10:40:43.279Z,53.12
2023-05-17T10:41:43.241Z,53.04
2023-05-17T10:42:43.196Z,55.53
2023-05-17T10:43:43.235Z,56.57
2023-05-17T10:44:43.198Z,56.29
2023-05-17T10:45:43.159Z,56.60
2023-05-17T10:46:43.134Z,57.28
2023-05-17T10:47:43.218Z,56.99
2023-05-17T10:48:43.221Z,53.75
2023-05-17T10:49:43.165Z,54.58
2023-05-17T10:50:50.608Z,49.26
2023-05-17T10:51:44.097Z,52.67
2023-05-17T10:52:43.081Z,50.37
2023-05-17T10:53:43.104Z,49.12
2023-05-17T10:54:43.081Z,46.30
2023-05-17T10:55:43.086Z,49.87
2023-05-17T10:56:43.021Z,48.30
2023-05-17T10:57:51.049Z,47.74
2023-05-17T10:58:44.046Z,47.16
2023-05-17T10:59:43.012Z,48.27
2023-05-17T11:00:42.950Z,49.51
2023-05-17T11:01:42.979Z,46.80
2023-05-17T11:02:42.989Z,48.85
2023-05-17T11:03:42.959Z,52.82
2023-05-17T11:04:43.043Z,51.81
2023-05-17T11:05:42.930Z,48.45
2023-05-17T11:06:42.914Z,51.23
2023-05-17T11:07:42.902Z,46.79
2023-05-17T11:08:42.879Z,46.49
2023-05-17T11:09:42.906Z,45.56
2023-05-17T11:10:42.861Z,48.56
2023-05-17T11:11:42.836Z,47.47
2023-05-17T11:12:43.172Z,50.62
2023-05-17T11:13:42.862Z,50.48
2023-05-17T11:14:42.787Z,48.52
2023-05-17T11:15:42.794Z,45.59
2023-05-17T11:16:42.795Z,48.96
2023-05-17T11:17:42.806Z,46.67
2023-05-17T11:18:42.876Z,48.18
2023-05-17T11:19:42.769Z,49.92
2023-05-17T11:20:42.908Z,49.26
2023-05-17T11:21:42.747Z,50.09
2023-05-17T11:22:42.816Z,48.58
2023-05-17T11:23:42.659Z,52.09
2023-05-17T11:24:42.653Z,49.44
2023-05-17T11:25:42.641Z,48.71
2023-05-17T11:26:42.653Z,49.99
2023-05-17T11:27:42.608Z,47.98
2023-05-17T11:28:42.609Z,47.55
2023-05-17T11:29:42.670Z,48.69
2023-05-17T11:30:42.565Z,50.60
2023-05-17T11:31:42.607Z,48.49
2023-05-17T11:32:42.559Z,51.91
2023-05-17T11:33:42.612Z,47.67
2023-05-17T11:34:42.614Z,45.26
2023-05-17T11:35:42.511Z,48.18
2023-05-17T11:36:42.556Z,47.90
2023-05-17T11:37:42.475Z,50.32
2023-05-17T11:38:42.496Z,45.28
2023-05-17T11:39:42.466Z,46.31
2023-05-17T11:40:42.491Z,45.93
2023-05-17T11:41:42.469Z,46.33
2023-05-17T11:42:42.431Z,47.64
2023-05-17T11:43:42.419Z,46.73
2023-05-17T11:44:42.429Z,47.08
2023-05-17T11:45:42.429Z,50.42
2023-05-17T11:46:42.398Z,49.43
2023-05-17T11:47:42.365Z,51.17
2023-05-17T11:48:42.367Z,53.27
2023-05-17T11:49:42.336Z,53.55
2023-05-17T11:50:42.365Z,49.41
2023-05-17T11:51:42.305Z,49.81
2023-05-17T11:52:42.317Z,50.39
2023-05-17T11:53:42.267Z,47.85
2023-05-17T11:54:42.249Z,50.16
2023-05-17T11:55:42.275Z,52.26
2023-05-17T11:56:43.159Z,47.88
2023-05-17T11:57:42.253Z,47.67
2023-05-17T11:58:42.232Z,47.74
2023-05-17T11:59:42.240Z,51.14
2023-05-17T12:00:42.218Z,44.97
2023-05-17T12:01:42.166Z,46.48
2023-05-17T12:02:42.167Z,46.15
2023-05-17T12:03:42.134Z,43.26
2023-05-17T12:04:42.245Z,43.20
2023-05-17T12:05:42.129Z,47.35
2023-05-17T12:06:42.199Z,46.79
2023-05-17T12:07:42.094Z,47.14
2023-05-17T12:08:42.080Z,47.95
2023-05-17T12:09:42.141Z,46.59
2023-05-17T12:10:42.068Z,48.30
2023-05-17T12:11:42.033Z,44.79
2023-05-17T12:12:42.024Z,48.07
2023-05-17T12:13:42.036Z,47.79
2023-05-17T12:14:42.018Z,47.91
2023-05-17T12:15:41.999Z,49.96
2023-05-17T12:16:41.963Z,49.02
2023-05-17T12:17:42.039Z,51.30
2023-05-17T12:18:42.092Z,50.37
2023-05-17T12:19:42.145Z,49.52
2023-05-17T12:20:41.938Z,52.72
2023-05-17T12:21:41.914Z,47.96
2023-05-17T12:22:41.899Z,47.47
2023-05-17T12:23:41.908Z,49.19
2023-05-17T12:24:41.897Z,47.96
2023-05-17T12:25:41.870Z,45.58
2023-05-17T12:26:41.852Z,46.43
2023-05-17T12:27:41.837Z,49.22
2023-05-17T12:28:41.848Z,50.09
2023-05-17T12:29:41.810Z,49.50
2023-05-17T12:30:41.812Z,52.03
2023-05-17T12:31:41.778Z,52.76
2023-05-17T12:32:41.901Z,48.90
2023-05-17T12:33:41.862Z,53.30
2023-05-17T12:34:41.736Z,52.87
2023-05-17T12:35:41.738Z,49.48
2023-05-17T12:36:41.718Z,49.74
2023-05-17T12:37:41.741Z,47.09
2023-05-17T12:38:41.746Z,47.17
2023-05-17T12:39:41.680Z,47.22
2023-05-17T12:40:43.347Z,47.85
2023-05-17T12:41:41.658Z,46.13
2023-05-17T12:42:41.690Z,45.61
2023-05-17T12:43:41.659Z,49.31
2023-05-17T12:44:41.621Z,43.95
2023-05-17T12:45:41.645Z,43.52
2023-05-17T12:46:41.610Z,48.66
2023-05-17T12:47:41.691Z,47.47
2023-05-17T12:48:41.588Z,50.10
2023-05-17T12:49:41.542Z,48.96
2023-05-17T12:50:41.593Z,49.57
2023-05-17T12:51:41.546Z,50.02
2023-05-17T12:52:41.498Z,49.37